createdAt,value
2019-01-08T00:01:47.244Z,93.88
2019-01-08T00:04:16.598Z,94.17
2019-01-08T00:06:45.891Z,94.31
2019-01-08T00:09:15.232Z,94.37
2019-01-08T00:11:44.545Z,93.87
2019-01-08T00:14:13.901Z,93.71
2019-01-08T00:16:43.193Z,92.68
2019-01-08T00:19:12.482Z,92.85
2019-01-08T00:21:41.773Z,93.16
2019-01-08T00:24:11.089Z,93.16
2019-01-08T00:26:40.393Z,93.29
2019-01-08T00:29:09.702Z,93.42
2019-01-08T00:31:38.984Z,93.49
2019-01-08T00:34:08.311Z,93.52
2019-01-08T00:36:37.677Z,93.20
2019-01-08T00:39:07.729Z,92.89
2019-01-08T00:41:37.079Z,93.13
2019-01-08T00:44:06.411Z,93.14
2019-01-08T00:46:35.751Z,93.07
2019-01-08T00:49:05.117Z,92.97
2019-01-08T00:51:34.411Z,92.43
2019-01-08T00:54:03.710Z,92.30
2019-01-08T00:56:33.015Z,92.23
2019-01-08T00:59:02.309Z,92.12
2019-01-08T01:01:31.670Z,92.37
2019-01-08T01:04:01.017Z,92.71
2019-01-08T01:06:30.329Z,92.19
2019-01-08T01:08:59.700Z,91.44
2019-01-08T01:11:28.987Z,91.32
2019-01-08T01:13:58.267Z,91.65
2019-01-08T01:16:27.536Z,90.96
2019-01-08T01:18:56.832Z,91.22
2019-01-08T01:21:26.117Z,91.09
2019-01-08T01:23:55.381Z,90.79
2019-01-08T01:26:24.697Z,91.20
2019-01-08T01:28:59.903Z,90.88
2019-01-08T01:31:23.290Z,90.11
2019-01-08T01:33:52.602Z,90.23
2019-01-08T01:36:21.884Z,90.82
2019-01-08T01:38:51.161Z,90.89
2019-01-08T01:41:20.444Z,90.94
2019-01-08T01:43:49.797Z,90.26
2019-01-08T01:46:19.072Z,90.13
2019-01-08T01:48:48.393Z,90.19
2019-01-08T01:51:17.686Z,90.05
2019-01-08T01:53:46.955Z,89.46
2019-01-08T01:56:16.222Z,89.50
2019-01-08T01:58:45.615Z,89.49
2019-01-08T02:01:14.867Z,89.03
2019-01-08T02:03:44.182Z,88.43
2019-01-08T02:06:13.403Z,88.54
2019-01-08T02:08:42.723Z,88.47
2019-01-08T02:11:12.003Z,88.20
2019-01-08T02:13:41.403Z,87.88
2019-01-08T02:16:10.645Z,88.14
2019-01-08T02:18:39.965Z,87.86
2019-01-08T02:21:09.240Z,87.86
2019-01-08T02:23:38.503Z,87.55
2019-01-08T02:26:07.813Z,87.13
2019-01-08T02:28:37.095Z,87.01
2019-01-08T02:31:06.418Z,86.61
2019-01-08T02:33:35.678Z,86.37
2019-01-08T02:36:04.962Z,86.12
2019-01-08T02:38:34.743Z,85.20
2019-01-08T02:41:06.837Z,85.34
2019-01-08T02:43:36.142Z,85.04
2019-01-08T02:46:05.567Z,84.29
2019-01-08T02:48:34.673Z,84.46
2019-01-08T02:51:03.973Z,84.62
2019-01-08T02:53:33.359Z,85.20
2019-01-08T02:56:02.703Z,85.44
2019-01-08T02:58:32.025Z,85.68
2019-01-08T03:01:01.347Z,86.21
2019-01-08T03:03:30.695Z,86.01
2019-01-08T03:05:59.997Z,86.03
2019-01-08T03:08:29.281Z,85.96
2019-01-08T03:10:58.528Z,85.88
2019-01-08T03:13:27.831Z,85.74
2019-01-08T03:15:57.060Z,85.32
2019-01-08T03:18:26.295Z,85.00
2019-01-08T03:20:55.576Z,84.96
2019-01-08T03:23:24.881Z,84.49
2019-01-08T03:25:54.268Z,84.29
2019-01-08T03:28:23.493Z,84.24
2019-01-08T03:30:52.792Z,84.01
2019-01-08T03:33:22.067Z,83.80
2019-01-08T03:35:51.326Z,83.49
2019-01-08T03:38:20.583Z,83.21
2019-01-08T03:40:49.866Z,83.48
2019-01-08T03:43:19.116Z,83.27
2019-01-08T03:45:48.432Z,83.09
2019-01-08T03:48:17.695Z,83.15
2019-01-08T03:50:47.001Z,83.12
2019-01-08T03:53:16.274Z,83.56
2019-01-08T03:55:45.617Z,83.82
2019-01-08T03:58:14.887Z,84.09
2019-01-08T04:00:44.186Z,84.52
2019-01-08T04:03:13.451Z,85.38
2019-01-08T04:05:42.698Z,85.78
2019-01-08T04:08:12.046Z,86.44
2019-01-08T04:10:41.468Z,86.76
2019-01-08T04:13:10.720Z,87.18
2019-01-08T04:15:39.996Z,87.95
2019-01-08T04:18:09.264Z,88.38
2019-01-08T04:20:38.576Z,89.56
2019-01-08T04:23:07.829Z,90.06
2019-01-08T04:25:37.124Z,92.04
2019-01-08T04:28:06.379Z,93.43
2019-01-08T04:30:35.654Z,94.14
2019-01-08T04:33:05.040Z,92.59
2019-01-08T04:35:34.298Z,92.22
2019-01-08T04:38:03.594Z,92.15
2019-01-08T04:40:32.832Z,91.45
2019-01-08T04:43:02.094Z,91.17
2019-01-08T04:45:31.379Z,91.42
2019-01-08T04:48:00.715Z,90.35
2019-01-08T04:50:30.000Z,89.57
2019-01-08T04:52:59.337Z,89.38
2019-01-08T04:55:28.632Z,89.34
2019-01-08T04:57:57.940Z,89.37
2019-01-08T05:00:27.182Z,88.95
2019-01-08T05:02:56.538Z,89.59
2019-01-08T05:05:25.788Z,89.16
2019-01-08T05:07:55.066Z,89.28
2019-01-08T05:10:24.346Z,89.48
2019-01-08T05:12:53.629Z,89.14
2019-01-08T05:15:22.967Z,89.40
2019-01-08T05:17:52.236Z,89.30
2019-01-08T05:20:21.513Z,89.73
2019-01-08T05:22:52.303Z,89.24
2019-01-08T05:25:21.487Z,89.15
2019-01-08T05:27:50.806Z,89.32
2019-01-08T05:30:20.117Z,89.09
2019-01-08T05:32:49.418Z,88.86
2019-01-08T05:35:18.746Z,88.61
2019-01-08T05:37:48.059Z,88.00
2019-01-08T05:40:17.396Z,88.85
2019-01-08T05:42:46.706Z,88.93
2019-01-08T05:45:15.984Z,89.07
2019-01-08T05:47:45.325Z,89.10
2019-01-08T05:50:14.625Z,88.75
2019-01-08T05:52:43.891Z,89.07
2019-01-08T05:55:13.128Z,88.86
2019-01-08T05:57:42.499Z,88.58
2019-01-08T06:00:16.335Z,87.11
2019-01-08T06:02:41.077Z,87.62
2019-01-08T06:05:10.328Z,87.25
2019-01-08T06:07:39.627Z,86.98
2019-01-08T06:10:09.590Z,87.02
2019-01-08T06:12:38.851Z,86.87
2019-01-08T06:15:08.096Z,86.38
2019-01-08T06:17:37.431Z,86.39
2019-01-08T06:20:06.924Z,85.30
2019-01-08T06:22:36.183Z,85.91
2019-01-08T06:25:05.641Z,85.64
2019-01-08T06:27:34.924Z,85.65
2019-01-08T06:30:04.532Z,85.69
2019-01-08T06:32:33.913Z,85.38
2019-01-08T06:35:03.248Z,85.13
2019-01-08T06:37:32.491Z,85.14
2019-01-08T06:40:01.836Z,84.57
2019-01-08T06:42:31.105Z,84.45
2019-01-08T06:45:00.397Z,84.71
2019-01-08T06:47:30.304Z,84.56
2019-01-08T06:49:59.083Z,85.17
2019-01-08T06:52:28.424Z,85.64
2019-01-08T06:54:57.745Z,85.39
2019-01-08T06:57:27.006Z,85.65
2019-01-08T06:59:56.359Z,86.11
2019-01-08T07:02:25.649Z,85.92
2019-01-08T07:04:54.913Z,85.83
2019-01-08T07:07:24.196Z,84.96
2019-01-08T07:09:53.529Z,84.64
2019-01-08T07:12:22.769Z,84.99
2019-01-08T07:14:52.040Z,84.55
2019-01-08T07:17:21.308Z,83.90
2019-01-08T07:19:50.765Z,83.74
2019-01-08T07:22:20.141Z,83.52
2019-01-08T07:24:49.439Z,83.01
2019-01-08T07:27:18.694Z,82.79
2019-01-08T07:29:47.985Z,82.25
2019-01-08T07:32:17.268Z,82.47
2019-01-08T07:34:46.622Z,82.36
2019-01-08T07:37:16.009Z,82.89
2019-01-08T07:39:45.352Z,82.31
2019-01-08T07:42:14.783Z,82.69
2019-01-08T07:44:44.039Z,83.13
2019-01-08T07:47:13.321Z,83.50
2019-01-08T07:49:42.581Z,83.79
2019-01-08T07:52:11.967Z,84.27
2019-01-08T07:54:41.265Z,84.35
2019-01-08T07:57:10.559Z,84.44
2019-01-08T07:59:39.886Z,83.81
2019-01-08T08:02:09.255Z,84.00
2019-01-08T08:04:38.574Z,84.15
2019-01-08T08:07:07.884Z,83.44
2019-01-08T08:09:37.197Z,82.92
2019-01-08T08:12:06.475Z,83.27
2019-01-08T08:14:35.793Z,83.36
2019-01-08T08:17:05.031Z,82.86
2019-01-08T08:19:34.265Z,82.76
2019-01-08T08:22:03.598Z,82.76
2019-01-08T08:24:32.875Z,82.76
2019-01-08T08:27:02.199Z,82.91
2019-01-08T08:29:31.589Z,82.61
2019-01-08T08:32:00.903Z,82.44
2019-01-08T08:34:30.287Z,82.26
2019-01-08T08:36:59.548Z,82.29
2019-01-08T08:39:28.799Z,82.39
2019-01-08T08:41:58.074Z,81.96
2019-01-08T08:44:27.383Z,81.66
2019-01-08T08:46:56.822Z,81.70
2019-01-08T08:49:26.101Z,81.31
2019-01-08T08:51:55.376Z,81.61
2019-01-08T08:54:24.648Z,81.48
2019-01-08T08:56:54.015Z,81.45
2019-01-08T08:59:23.261Z,81.55
2019-01-08T09:01:52.603Z,81.22
2019-01-08T09:04:21.921Z,81.47
2019-01-08T09:06:51.288Z,82.22
2019-01-08T09:09:20.631Z,83.48
2019-01-08T09:11:49.904Z,85.37
2019-01-08T09:14:19.194Z,85.50
2019-01-08T09:16:48.455Z,86.62
2019-01-08T09:19:17.871Z,87.14
2019-01-08T09:21:47.165Z,87.11
2019-01-08T09:24:16.479Z,88.05
2019-01-08T09:26:45.780Z,88.27
2019-01-08T09:29:15.071Z,88.30
2019-01-08T09:31:44.365Z,88.68
2019-01-08T09:34:13.705Z,88.91
2019-01-08T09:36:43.022Z,88.94
2019-01-08T09:39:12.325Z,89.07
2019-01-08T09:41:41.627Z,89.24
2019-01-08T09:44:10.885Z,90.17
2019-01-08T09:46:40.156Z,90.24
2019-01-08T09:49:09.541Z,90.42
2019-01-08T09:51:38.796Z,91.19
2019-01-08T09:54:08.100Z,90.92
2019-01-08T09:56:37.425Z,91.59
2019-01-08T09:59:06.730Z,91.86
2019-01-08T10:01:36.045Z,91.72
2019-01-08T10:04:05.286Z,91.49
2019-01-08T10:06:34.584Z,91.29
2019-01-08T10:09:04.424Z,91.54
2019-01-08T10:11:33.793Z,91.27
2019-01-08T10:14:03.158Z,91.58
2019-01-08T10:16:32.451Z,91.75
2019-01-08T10:19:01.705Z,92.05
2019-01-08T10:21:31.017Z,91.31
2019-01-08T10:24:02.030Z,91.86
2019-01-08T10:26:29.676Z,91.43
2019-01-08T10:28:59.052Z,91.65
2019-01-08T10:31:32.581Z,91.15
2019-01-08T10:33:57.695Z,91.00
2019-01-08T10:36:26.901Z,91.41
2019-01-08T10:38:56.188Z,90.80
2019-01-08T10:41:25.431Z,90.69
2019-01-08T10:43:54.719Z,90.86
2019-01-08T10:46:23.979Z,90.96
2019-01-08T10:48:53.249Z,91.51
2019-01-08T10:51:22.559Z,91.23
2019-01-08T10:53:51.888Z,90.59
2019-01-08T10:56:21.206Z,90.93
2019-01-08T10:58:50.483Z,90.19
2019-01-08T11:01:20.186Z,89.62
2019-01-08T11:03:49.625Z,90.50
2019-01-08T11:06:18.969Z,91.18
2019-01-08T11:08:48.321Z,91.00
2019-01-08T11:11:17.584Z,92.03
2019-01-08T11:13:46.901Z,91.58
2019-01-08T11:16:16.276Z,91.58
2019-01-08T11:18:45.638Z,92.13
2019-01-08T11:21:14.933Z,91.29
2019-01-08T11:23:44.703Z,91.62
2019-01-08T11:26:13.952Z,91.15
2019-01-08T11:28:43.337Z,91.53
2019-01-08T11:31:12.607Z,91.45
2019-01-08T11:33:41.878Z,91.88
2019-01-08T11:36:11.155Z,91.22
2019-01-08T11:38:40.453Z,91.42
2019-01-08T11:41:09.699Z,90.90
2019-01-08T11:43:38.965Z,91.43
2019-01-08T11:46:08.297Z,91.70
2019-01-08T11:48:37.569Z,92.07
2019-01-08T11:52:10.972Z,100.00
2019-01-08T12:10:59.797Z,100.00
2019-01-08T12:16:04.119Z,100.00
2019-01-08T12:19:54.201Z,100.00
2019-01-08T12:34:03.387Z,100.00
2019-01-08T12:36:43.794Z,100.00
2019-01-08T12:40:46.492Z,100.00
2019-01-08T13:29:44.661Z,100.00
2019-01-08T14:43:20.544Z,100.00
2019-01-08T14:51:14.965Z,100.00
2019-01-08T15:06:57.785Z,100.00
2019-01-08T15:09:29.533Z,100.00
2019-01-08T15:23:18.687Z,100.00
2019-01-08T15:55:46.662Z,100.00
2019-01-08T16:09:03.715Z,100.00
2019-01-08T16:12:58.886Z,100.00
2019-01-08T16:31:56.255Z,100.00
2019-01-08T16:35:16.348Z,100.00
2019-01-08T16:47:06.110Z,85.07
2019-01-08T16:49:35.416Z,85.73
2019-01-08T16:52:04.707Z,84.94
2019-01-08T16:54:34.046Z,84.78
2019-01-08T16:57:03.305Z,84.97
2019-01-08T16:59:32.626Z,84.72
2019-01-08T17:02:01.918Z,85.08
2019-01-08T17:04:31.235Z,84.89
2019-01-08T17:07:00.542Z,85.55
2019-01-08T17:09:29.926Z,85.37
2019-01-08T17:11:59.244Z,86.05
2019-01-08T17:14:28.563Z,86.47
2019-01-08T17:16:57.842Z,86.37
2019-01-08T17:19:27.105Z,86.61
2019-01-08T17:21:56.585Z,86.96
2019-01-08T17:24:25.878Z,87.26
2019-01-08T17:26:55.147Z,87.39
2019-01-08T17:29:24.479Z,87.46
2019-01-08T17:31:53.751Z,87.47
2019-01-08T17:34:23.082Z,87.68
2019-01-08T17:36:52.372Z,87.25
2019-01-08T17:39:21.737Z,86.89
2019-01-08T17:41:51.029Z,86.64
2019-01-08T17:44:20.529Z,86.18
2019-01-08T17:46:50.027Z,85.95
2019-01-08T17:49:19.365Z,85.20
2019-01-08T17:51:48.672Z,85.06
2019-01-08T17:54:18.103Z,84.72
2019-01-08T17:56:47.413Z,85.40
2019-01-08T17:59:18.893Z,85.27
2019-01-08T18:01:56.908Z,84.99
2019-01-08T18:04:26.153Z,84.96
2019-01-08T18:06:55.589Z,82.86
2019-01-08T18:09:24.944Z,81.67
2019-01-08T18:11:54.389Z,81.25
2019-01-08T18:14:23.697Z,80.46
2019-01-08T18:16:53.359Z,81.41
2019-01-08T18:19:22.588Z,79.05
2019-01-08T18:21:51.878Z,79.29
2019-01-08T18:24:21.178Z,79.99
2019-01-08T18:26:50.862Z,78.21
2019-01-08T18:29:20.237Z,77.91
2019-01-08T18:31:49.507Z,77.37
2019-01-08T18:34:18.995Z,77.73
2019-01-08T18:36:48.249Z,77.86
2019-01-08T18:39:17.762Z,76.62
2019-01-08T18:41:48.425Z,76.02
2019-01-08T18:44:17.838Z,75.59
2019-01-08T18:46:47.111Z,76.34
2019-01-08T18:49:19.094Z,77.03
2019-01-08T18:51:48.695Z,76.30
2019-01-08T18:54:18.345Z,77.08
2019-01-08T18:56:47.778Z,76.61
2019-01-08T18:59:17.062Z,76.85
2019-01-08T19:01:46.315Z,77.50
2019-01-08T19:04:15.723Z,77.75
2019-01-08T19:06:45.037Z,77.82
2019-01-08T19:09:26.052Z,78.75
2019-01-08T19:11:55.752Z,79.95
2019-01-08T19:14:28.234Z,80.73
2019-01-08T19:16:57.537Z,80.64
2019-01-08T19:19:26.905Z,81.41
2019-01-08T19:21:56.144Z,81.43
2019-01-08T19:24:25.428Z,82.38
2019-01-08T19:26:54.703Z,82.71
2019-01-08T19:29:24.223Z,83.30
2019-01-08T19:31:53.512Z,84.00
2019-01-08T19:34:22.809Z,84.78
2019-01-08T19:36:52.234Z,85.10
2019-01-08T19:39:21.740Z,85.81
2019-01-08T19:41:51.220Z,86.43
2019-01-08T19:44:20.719Z,86.63
2019-01-08T19:46:50.246Z,87.86
2019-01-08T19:49:19.683Z,87.41
2019-01-08T19:51:49.034Z,88.32
2019-01-08T19:54:18.355Z,88.45
2019-01-08T19:56:47.633Z,88.87
2019-01-08T19:59:17.020Z,89.25
2019-01-08T20:01:46.525Z,89.53
2019-01-08T20:04:17.985Z,89.06
2019-01-08T20:06:45.517Z,89.04
2019-01-08T20:09:14.829Z,88.92
2019-01-08T20:11:44.377Z,87.94
2019-01-08T20:14:13.663Z,87.45
2019-01-08T20:16:43.011Z,87.69
2019-01-08T20:19:12.627Z,86.99
2019-01-08T20:21:42.336Z,86.93
2019-01-08T20:24:15.833Z,86.62
2019-01-08T20:26:45.397Z,86.82
2019-01-08T20:29:23.123Z,86.60
2019-01-08T20:31:49.901Z,86.21
2019-01-08T20:34:26.601Z,86.50
2019-01-08T20:36:48.729Z,86.28
2019-01-08T20:39:18.040Z,85.31
2019-01-08T20:41:47.379Z,85.75
2019-01-08T20:44:16.669Z,85.51
2019-01-08T20:46:45.947Z,85.43
2019-01-08T20:49:15.275Z,85.25
2019-01-08T20:51:44.601Z,86.04
2019-01-08T20:54:13.904Z,86.85
2019-01-08T20:56:43.248Z,87.23
2019-01-08T20:59:12.556Z,86.88
2019-01-08T21:01:41.828Z,86.93
2019-01-08T21:04:11.159Z,86.76
2019-01-08T21:06:40.469Z,85.89
2019-01-08T21:09:09.767Z,85.06
2019-01-08T21:11:39.147Z,83.81
2019-01-08T21:14:08.495Z,83.01
2019-01-08T21:16:37.837Z,81.77
2019-01-08T21:19:07.119Z,81.29
2019-01-08T21:21:39.797Z,80.58
2019-01-08T21:24:09.109Z,80.37
2019-01-08T21:26:38.399Z,79.46
2019-01-08T21:29:07.697Z,79.40
2019-01-08T21:31:37.027Z,78.94
2019-01-08T21:34:06.310Z,78.45
2019-01-08T21:36:35.631Z,78.48
2019-01-08T21:39:06.308Z,78.57
2019-01-08T21:41:38.857Z,78.16
2019-01-08T21:44:05.015Z,78.14
2019-01-08T21:46:34.365Z,78.65
2019-01-08T21:49:03.737Z,77.74
2019-01-08T21:51:35.657Z,77.06
2019-01-08T21:54:05.238Z,77.36
2019-01-08T21:56:34.542Z,77.54
2019-01-08T21:59:03.869Z,77.84
2019-01-08T22:01:33.108Z,78.47
2019-01-08T22:04:02.528Z,78.36
2019-01-08T22:06:31.945Z,78.77
2019-01-08T22:09:01.300Z,78.33
2019-01-08T22:11:30.682Z,78.76
2019-01-08T22:13:59.995Z,79.73
2019-01-08T22:16:29.277Z,79.32
2019-01-08T22:18:58.583Z,79.39
2019-01-08T22:21:27.845Z,79.47
2019-01-08T22:23:57.154Z,79.99
2019-01-08T22:26:26.431Z,80.00
2019-01-08T22:28:55.738Z,80.57
2019-01-08T22:31:24.999Z,81.09
2019-01-08T22:33:54.323Z,80.67
2019-01-08T22:36:23.622Z,80.44
2019-01-08T22:38:52.899Z,80.52
2019-01-08T22:41:22.231Z,79.81
2019-01-08T22:43:51.541Z,79.80
2019-01-08T22:46:20.921Z,79.94
2019-01-08T22:48:50.307Z,79.59
2019-01-08T22:51:19.665Z,79.79
2019-01-08T22:53:48.995Z,79.73
2019-01-08T22:56:18.293Z,78.90
2019-01-08T22:58:47.535Z,78.19
2019-01-08T23:01:20.633Z,77.60
2019-01-08T23:03:49.937Z,76.22
2019-01-08T23:06:19.262Z,75.07
2019-01-08T23:08:48.569Z,74.31
2019-01-08T23:11:17.830Z,74.42
2019-01-08T23:13:47.196Z,74.28
2019-01-08T23:16:16.480Z,73.80
2019-01-08T23:18:45.809Z,74.14
2019-01-08T23:21:15.148Z,74.21
2019-01-08T23:23:44.481Z,74.58
2019-01-08T23:26:13.727Z,74.35
2019-01-08T23:28:43.146Z,73.21
2019-01-08T23:31:12.440Z,73.43
2019-01-08T23:33:41.811Z,73.35
2019-01-08T23:36:11.097Z,72.71
2019-01-08T23:38:40.391Z,73.43
2019-01-08T23:41:09.668Z,73.30
2019-01-08T23:43:38.970Z,72.81
2019-01-08T23:46:08.237Z,72.32
2019-01-08T23:48:37.548Z,72.35
2019-01-08T23:51:06.839Z,72.33
2019-01-08T23:53:39.021Z,72.66
2019-01-08T23:56:09.123Z,71.85
2019-01-08T23:58:38.424Z,72.34
